PWSweather.com
Personal Weather Stations
Station Observations
KVAGLENALL
West Henrico, Glen Allen, VA 23060-6503

West HenricoGlen Allen, VA 23060-6503

Lat: 37.6554, Lon: -77.5693

Elevation: 273

Station Type: Davis Vantage Pro II

Latest ConditionsUpdated 7:00:23 PM EST Friday, Feb 5, 2016
Currently Today's Max Today's Min Today's Average
Temperature 35.3°F1.8°C 45.9°F7.7°C 33.8°F1.0°C 39.5°F4.2°C
Dew Point 19.9°F-6.7°C 34.3°F1.3°C 18.1°F-7.7°C 27.4°F-2.6°C
Winds Calm Calm 17.0 mph N27.4 kmh N - 4.2 mph 6.8 kmh
Wind Gusts 2.0 mph3.2 kmh 17.2 mph27.7 kmh - -
Humidity 53% 93% 38% 65%
Pressure 30.38 in1028.8 mb 30.38 in1028.8 mb 30.07 in1018.3 mb -
Hour Temp Dew Point Humidity Winds Wind Gusts Pressure Precip Precip Rate Daily Precip Total
07:00 PM 35.3°F1.8°C 19.9°F-6.7°C 53% Calm Calm 2.0 mph3.2 kmh 30.38 in1028.8 mb 0.00 in0.0 mm 0.00 in0.0 mm 0.05 in1.3 mm
06:45 PM 36.1°F2.3°C 19.3°F-7.1°C 50% Calm Calm 1.0 mph1.6 kmh 30.38 in1028.8 mb 0.00 in0.0 mm 0.00 in0.0 mm 0.05 in1.3 mm
06:30 PM 36.7°F2.6°C 18.9°F-7.3°C 48% Calm Calm 4.0 mph6.4 kmh 30.38 in1028.8 mb 0.00 in0.0 mm 0.00 in0.0 mm 0.05 in1.3 mm
06:15 PM 37.4°F3.0°C 19.0°F-7.2°C 47% 1.0 mph N1.6 kmh N 4.0 mph6.4 kmh 30.38 in1028.8 mb 0.00 in0.0 mm 0.00 in0.0 mm 0.05 in1.3 mm
06:00 PM 38.6°F3.7°C 18.1°F-7.7°C 43% 3.0 mph NW4.8 kmh NW 4.0 mph6.4 kmh 30.37 in1028.4 mb 0.00 in0.0 mm 0.00 in0.0 mm 0.05 in1.3 mm
05:45 PM 39.4°F4.1°C 18.8°F-7.3°C 43% 3.0 mph N4.8 kmh N 5.1 mph8.2 kmh 30.36 in1028.1 mb 0.00 in0.0 mm 0.00 in0.0 mm 0.05 in1.3 mm
05:30 PM 40.3°F4.6°C 20.7°F-6.3°C 45% 2.0 mph N3.2 kmh N 4.0 mph6.4 kmh 30.36 in1028.1 mb 0.00 in0.0 mm 0.00 in0.0 mm 0.05 in1.3 mm
05:15 PM 41.3°F5.2°C 20.0°F-6.7°C 42% 2.0 mph N3.2 kmh N 5.1 mph8.2 kmh 30.35 in1027.8 mb 0.00 in0.0 mm 0.00 in0.0 mm 0.05 in1.3 mm
05:00 PM 42.0°F5.6°C 20.0°F-6.7°C 41% 1.0 mph ENE1.6 kmh ENE 4.0 mph6.4 kmh 30.35 in1027.8 mb 0.00 in0.0 mm 0.00 in0.0 mm 0.05 in1.3 mm
04:45 PM 42.9°F6.1°C 20.3°F-6.5°C 40% 2.0 mph NW3.2 kmh NW 4.0 mph6.4 kmh 30.34 in1027.4 mb 0.00 in0.0 mm 0.00 in0.0 mm 0.05 in1.3 mm
04:30 PM 43.6°F6.4°C 20.9°F-6.2°C 40% Calm Calm 1.0 mph1.6 kmh 30.34 in1027.4 mb 0.00 in0.0 mm 0.00 in0.0 mm 0.05 in1.3 mm
04:15 PM 44.2°F6.8°C 20.2°F-6.6°C 38% 1.0 mph W1.6 kmh W 7.1 mph11.4 kmh 30.33 in1027.1 mb 0.00 in0.0 mm 0.00 in0.0 mm 0.05 in1.3 mm
04:00 PM 44.6°F7.0°C 20.6°F-6.3°C 38% 1.0 mph NW1.6 kmh NW 6.1 mph9.8 kmh 30.32 in1026.8 mb 0.00 in0.0 mm 0.00 in0.0 mm 0.05 in1.3 mm
03:45 PM 44.9°F7.2°C 20.9°F-6.2°C 38% 2.0 mph NNW3.2 kmh NNW 11.1 mph17.9 kmh 30.32 in1026.8 mb 0.00 in0.0 mm 0.00 in0.0 mm 0.05 in1.3 mm
03:30 PM 45.3°F7.4°C 21.2°F-6.0°C 38% 1.0 mph NW1.6 kmh NW 7.1 mph11.4 kmh 30.31 in1026.4 mb 0.00 in0.0 mm 0.00 in0.0 mm 0.05 in1.3 mm
03:15 PM 45.3°F7.4°C 22.4°F-5.3°C 40% 7.0 mph NNE11.3 kmh NNE 10.1 mph16.3 kmh 30.31 in1026.4 mb 0.00 in0.0 mm 0.00 in0.0 mm 0.05 in1.3 mm
03:00 PM 45.3°F7.4°C 21.2°F-6.0°C 38% 1.0 mph NNW1.6 kmh NNW 5.1 mph8.2 kmh 30.30 in1026.1 mb 0.00 in0.0 mm 0.00 in0.0 mm 0.05 in1.3 mm
02:45 PM 45.3°F7.4°C 21.2°F-6.0°C 38% 2.0 mph NW3.2 kmh NW 7.1 mph11.4 kmh 30.31 in1026.4 mb 0.00 in0.0 mm 0.00 in0.0 mm 0.05 in1.3 mm
02:30 PM 45.3°F7.4°C 23.0°F-5.0°C 41% 5.0 mph NNE8.0 kmh NNE 6.1 mph9.8 kmh 30.30 in1026.1 mb 0.00 in0.0 mm 0.00 in0.0 mm 0.05 in1.3 mm
02:15 PM 45.2°F7.3°C 22.9°F-5.1°C 41% 4.0 mph NNW6.4 kmh NNW 8.1 mph13.0 kmh 30.31 in1026.4 mb 0.00 in0.0 mm 0.00 in0.0 mm 0.05 in1.3 mm
02:00 PM 45.8°F7.7°C 22.9°F-5.1°C 40% 4.0 mph WNW6.4 kmh WNW 10.1 mph16.3 kmh 30.30 in1026.1 mb 0.00 in0.0 mm 0.00 in0.0 mm 0.05 in1.3 mm
01:45 PM 45.8°F7.7°C 24.6°F-4.1°C 43% 6.0 mph NNE9.7 kmh NNE 13.1 mph21.1 kmh 30.31 in1026.4 mb 0.00 in0.0 mm 0.00 in0.0 mm 0.05 in1.3 mm
01:30 PM 44.7°F7.1°C 23.6°F-4.7°C 43% 5.0 mph NE8.0 kmh NE 7.1 mph11.4 kmh 30.31 in1026.4 mb 0.00 in0.0 mm 0.00 in0.0 mm 0.05 in1.3 mm
01:15 PM 45.9°F7.7°C 25.8°F-3.4°C 45% 11.0 mph NNW17.7 kmh NNW 13.1 mph21.1 kmh 30.31 in1026.4 mb 0.00 in0.0 mm 0.00 in0.0 mm 0.05 in1.3 mm
01:00 PM 45.3°F7.4°C 24.1°F-4.4°C 43% 3.0 mph N4.8 kmh N 12.1 mph19.5 kmh 30.31 in1026.4 mb 0.00 in0.0 mm 0.00 in0.0 mm 0.05 in1.3 mm
12:45 PM 45.2°F7.3°C 25.1°F-3.8°C 45% 6.0 mph NNE9.7 kmh NNE 11.1 mph17.9 kmh 30.31 in1026.4 mb 0.00 in0.0 mm 0.00 in0.0 mm 0.05 in1.3 mm
12:30 PM 45.0°F7.2°C 26.5°F-3.1°C 48% 12.0 mph N19.3 kmh N 12.1 mph19.5 kmh 30.31 in1026.4 mb 0.00 in0.0 mm 0.00 in0.0 mm 0.05 in1.3 mm
12:15 PM 44.0°F6.7°C 25.6°F-3.6°C 48% 4.0 mph SW6.4 kmh SW 11.1 mph17.9 kmh 30.32 in1026.8 mb 0.00 in0.0 mm 0.00 in0.0 mm 0.05 in1.3 mm
12:00 PM 43.4°F6.3°C 26.0°F-3.3°C 50% 2.0 mph N3.2 kmh N 7.1 mph11.4 kmh 30.32 in1026.8 mb 0.00 in0.0 mm 0.00 in0.0 mm 0.05 in1.3 mm
11:45 AM 43.2°F6.2°C 25.8°F-3.4°C 50% 10.0 mph NW16.1 kmh NW 17.2 mph27.7 kmh 30.32 in1026.8 mb 0.00 in0.0 mm 0.00 in0.0 mm 0.05 in1.3 mm
11:30 AM 42.6°F5.9°C 26.2°F-3.2°C 52% 4.0 mph NNE6.4 kmh NNE 5.1 mph8.2 kmh 30.32 in1026.8 mb 0.00 in0.0 mm 0.00 in0.0 mm 0.05 in1.3 mm
11:15 AM 41.7°F5.4°C 27.6°F-2.4°C 57% 2.0 mph W3.2 kmh W 10.1 mph16.3 kmh 30.32 in1026.8 mb 0.00 in0.0 mm 0.00 in0.0 mm 0.05 in1.3 mm
11:00 AM 40.3°F4.6°C 26.3°F-3.2°C 57% 5.0 mph W8.0 kmh W 10.1 mph16.3 kmh 30.32 in1026.8 mb 0.00 in0.0 mm 0.00 in0.0 mm 0.05 in1.3 mm
10:45 AM 39.3°F4.1°C 26.2°F-3.2°C 59% 6.0 mph NW9.7 kmh NW 15.1 mph24.3 kmh 30.31 in1026.4 mb 0.00 in0.0 mm 0.00 in0.0 mm 0.05 in1.3 mm
10:30 AM 38.7°F3.7°C 26.4°F-3.1°C 61% 4.0 mph NW6.4 kmh NW 9.1 mph14.6 kmh 30.31 in1026.4 mb 0.00 in0.0 mm 0.00 in0.0 mm 0.05 in1.3 mm
10:15 AM 38.4°F3.6°C 26.9°F-2.8°C 63% 2.0 mph WNW3.2 kmh WNW 5.1 mph8.2 kmh 30.30 in1026.1 mb 0.00 in0.0 mm 0.00 in0.0 mm 0.05 in1.3 mm
10:00 AM 38.0°F3.3°C 25.8°F-3.4°C 61% 4.0 mph NNW6.4 kmh NNW 6.1 mph9.8 kmh 30.28 in1025.4 mb 0.00 in0.0 mm 0.00 in0.0 mm 0.05 in1.3 mm
09:45 AM 37.9°F3.3°C 27.9°F-2.3°C 67% 5.0 mph SW8.0 kmh SW 11.1 mph17.9 kmh 30.27 in1025.1 mb 0.00 in0.0 mm 0.00 in0.0 mm 0.05 in1.3 mm
09:30 AM 37.4°F3.0°C 29.6°F-1.3°C 73% 6.0 mph NW9.7 kmh NW 10.1 mph16.3 kmh 30.26 in1024.7 mb 0.00 in0.0 mm 0.00 in0.0 mm 0.05 in1.3 mm
09:15 AM 37.0°F2.8°C 30.2°F-1.0°C 76% 3.0 mph N4.8 kmh N 5.1 mph8.2 kmh 30.25 in1024.4 mb 0.00 in0.0 mm 0.00 in0.0 mm 0.05 in1.3 mm
09:00 AM 36.9°F2.7°C 30.7°F-0.7°C 78% 5.0 mph NNW8.0 kmh NNW 7.1 mph11.4 kmh 30.24 in1024.0 mb 0.00 in0.0 mm 0.00 in0.0 mm 0.05 in1.3 mm
08:45 AM 36.7°F2.6°C 31.4°F-0.3°C 81% 2.0 mph NW3.2 kmh NW 6.1 mph9.8 kmh 30.24 in1024.0 mb 0.00 in0.0 mm 0.00 in0.0 mm 0.05 in1.3 mm
08:30 AM 36.9°F2.7°C 32.2°F0.1°C 83% 4.0 mph NNE6.4 kmh NNE 4.0 mph6.4 kmh 30.23 in1023.7 mb 0.00 in0.0 mm 0.00 in0.0 mm 0.05 in1.3 mm
08:15 AM 36.3°F2.4°C 32.8°F0.4°C 87% 1.0 mph NNW1.6 kmh NNW 2.0 mph3.2 kmh 30.23 in1023.7 mb 0.00 in0.0 mm 0.00 in0.0 mm 0.05 in1.3 mm
08:00 AM 35.0°F1.7°C 31.8°F-0.1°C 88% 3.0 mph NNW4.8 kmh NNW 7.1 mph11.4 kmh 30.22 in1023.4 mb 0.00 in0.0 mm 0.00 in0.0 mm 0.05 in1.3 mm
07:45 AM 34.8°F1.6°C 31.9°F-0.1°C 89% Calm Calm 2.0 mph3.2 kmh 30.21 in1023.0 mb 0.01 in0.3 mm 0.00 in0.0 mm 0.05 in1.3 mm
07:30 AM 34.7°F1.5°C 31.8°F-0.1°C 89% Calm Calm 1.0 mph1.6 kmh 30.19 in1022.4 mb 0.01 in0.3 mm 0.00 in0.0 mm 0.05 in1.3 mm
07:15 AM 34.7°F1.5°C 31.5°F-0.3°C 88% Calm Calm 1.0 mph1.6 kmh 30.20 in1022.7 mb 0.01 in0.3 mm 0.00 in0.0 mm 0.05 in1.3 mm
07:00 AM 34.7°F1.5°C 31.5°F-0.3°C 88% 3.0 mph NW4.8 kmh NW 3.0 mph4.8 kmh 30.17 in1021.7 mb 0.01 in0.3 mm 0.01 in0.3 mm 0.05 in1.3 mm
06:45 AM 34.7°F1.5°C 31.5°F-0.3°C 88% Calm Calm 5.1 mph8.2 kmh 30.16 in1021.3 mb 0.00 in0.0 mm 0.00 in0.0 mm 0.04 in1.0 mm
06:30 AM 34.5°F1.4°C 31.6°F-0.2°C 89% 7.0 mph NE11.3 kmh NE 10.1 mph16.3 kmh 30.11 in1019.6 mb 0.01 in0.3 mm 0.00 in0.0 mm 0.04 in1.0 mm
06:15 AM 34.5°F1.4°C 31.9°F-0.1°C 90% 6.0 mph NNW9.7 kmh NNW 6.1 mph9.8 kmh 30.14 in1020.7 mb 0.01 in0.3 mm 0.00 in0.0 mm 0.04 in1.0 mm
06:00 AM 34.2°F1.2°C 32.1°F0.1°C 92% 10.0 mph N16.1 kmh N 16.2 mph26.1 kmh 30.15 in1021.0 mb 0.01 in0.3 mm 0.00 in0.0 mm 0.04 in1.0 mm
05:45 AM 33.8°F1.0°C 32.0°F0.0°C 93% 6.0 mph NW9.7 kmh NW 16.2 mph26.1 kmh 30.11 in1019.6 mb 0.02 in0.5 mm 0.00 in0.0 mm 0.04 in1.0 mm
05:30 AM 33.8°F1.0°C 32.0°F0.0°C 93% 3.0 mph NNW4.8 kmh NNW 7.1 mph11.4 kmh 30.13 in1020.3 mb 0.02 in0.5 mm 0.00 in0.0 mm 0.04 in1.0 mm
05:15 AM 33.8°F1.0°C 31.7°F-0.2°C 92% 3.0 mph NNW4.8 kmh NNW 5.1 mph8.2 kmh 30.14 in1020.7 mb 0.02 in0.5 mm 0.00 in0.0 mm 0.04 in1.0 mm
05:00 AM 33.9°F1.1°C 31.8°F-0.1°C 92% 3.0 mph NW4.8 kmh NW 5.1 mph8.2 kmh 30.13 in1020.3 mb 0.03 in0.8 mm 0.00 in0.0 mm 0.04 in1.0 mm
04:45 AM 33.9°F1.1°C 31.8°F-0.1°C 92% 9.0 mph N14.5 kmh N 15.1 mph24.3 kmh 30.12 in1020.0 mb 0.03 in0.8 mm 0.00 in0.0 mm 0.04 in1.0 mm
04:30 AM 33.9°F1.1°C 31.6°F-0.2°C 91% 10.0 mph NE16.1 kmh NE 10.1 mph16.3 kmh 30.14 in1020.7 mb 0.03 in0.8 mm 0.00 in0.0 mm 0.04 in1.0 mm
04:15 AM 34.4°F1.3°C 31.5°F-0.3°C 89% 2.0 mph NE3.2 kmh NE 6.1 mph9.8 kmh 30.12 in1020.0 mb 0.03 in0.8 mm 0.04 in1.0 mm 0.04 in1.0 mm
04:00 AM 35.6°F2.0°C 32.1°F0.1°C 87% 3.0 mph N4.8 kmh N 9.1 mph14.6 kmh 30.09 in1019.0 mb 0.02 in0.5 mm 0.01 in0.3 mm 0.03 in0.8 mm
03:45 AM 36.3°F2.4°C 32.2°F0.1°C 85% 6.0 mph NW9.7 kmh NW 16.2 mph26.1 kmh 30.09 in1019.0 mb 0.01 in0.3 mm 0.04 in1.0 mm 0.02 in0.5 mm
03:30 AM 37.3°F2.9°C 31.7°F-0.2°C 80% 4.0 mph NNW6.4 kmh NNW 6.1 mph9.8 kmh 30.10 in1019.3 mb 0.00 in0.0 mm 0.00 in0.0 mm 0.01 in0.3 mm
03:15 AM 38.0°F3.3°C 31.1°F-0.5°C 76% 5.0 mph NNE8.0 kmh NNE 11.1 mph17.9 kmh 30.08 in1018.6 mb 0.00 in0.0 mm 0.00 in0.0 mm 0.01 in0.3 mm
03:00 AM 38.6°F3.7°C 30.7°F-0.7°C 73% 2.0 mph N3.2 kmh N 10.1 mph16.3 kmh 30.10 in1019.3 mb 0.00 in0.0 mm 0.00 in0.0 mm 0.01 in0.3 mm
02:45 AM 39.2°F4.0°C 30.3°F-0.9°C 70% 9.0 mph NNE14.5 kmh NNE 13.1 mph21.1 kmh 30.08 in1018.6 mb 0.00 in0.0 mm 0.00 in0.0 mm 0.01 in0.3 mm
02:30 AM 39.4°F4.1°C 30.4°F-0.9°C 70% 3.0 mph N4.8 kmh N 11.1 mph17.9 kmh 30.07 in1018.3 mb 0.00 in0.0 mm 0.00 in0.0 mm 0.01 in0.3 mm
02:15 AM 39.4°F4.1°C 30.4°F-0.9°C 70% 10.0 mph N16.1 kmh N 13.1 mph21.1 kmh 30.08 in1018.6 mb 0.00 in0.0 mm 0.00 in0.0 mm 0.01 in0.3 mm
02:00 AM 39.6°F4.2°C 30.6°F-0.8°C 70% 6.0 mph NNE9.7 kmh NNE 14.1 mph22.7 kmh 30.08 in1018.6 mb 0.00 in0.0 mm 0.00 in0.0 mm 0.01 in0.3 mm
01:45 AM 39.9°F4.4°C 30.6°F-0.8°C 69% 7.0 mph NW11.3 kmh NW 9.1 mph14.6 kmh 30.08 in1018.6 mb 0.00 in0.0 mm 0.00 in0.0 mm 0.01 in0.3 mm
01:30 AM 40.2°F4.6°C 31.2°F-0.4°C 70% 17.0 mph N27.4 kmh N 17.2 mph27.7 kmh 30.08 in1018.6 mb 0.00 in0.0 mm 0.00 in0.0 mm 0.01 in0.3 mm
01:15 AM 40.0°F4.4°C 33.1°F0.6°C 76% 2.0 mph N3.2 kmh N 6.1 mph9.8 kmh 30.07 in1018.3 mb 0.01 in0.3 mm 0.00 in0.0 mm 0.01 in0.3 mm
01:00 AM 40.2°F4.6°C 32.9°F0.5°C 75% 5.0 mph N8.0 kmh N 10.1 mph16.3 kmh 30.07 in1018.3 mb 0.01 in0.3 mm 0.00 in0.0 mm 0.01 in0.3 mm
12:45 AM 40.2°F4.6°C 33.6°F0.9°C 77% 5.0 mph NE8.0 kmh NE 6.1 mph9.8 kmh 30.07 in1018.3 mb 0.01 in0.3 mm 0.00 in0.0 mm 0.01 in0.3 mm
12:30 AM 40.2°F4.6°C 33.6°F0.9°C 77% 6.0 mph NE9.7 kmh NE 11.1 mph17.9 kmh 30.08 in1018.6 mb 0.01 in0.3 mm 0.00 in0.0 mm 0.01 in0.3 mm
12:15 AM 40.2°F4.6°C 33.9°F1.1°C 78% 1.0 mph N1.6 kmh N 12.1 mph19.5 kmh 30.09 in1019.0 mb 0.01 in0.3 mm 0.00 in0.0 mm 0.01 in0.3 mm
12:00 AM 40.3°F4.6°C 34.3°F1.3°C 79% 10.0 mph NNE16.1 kmh NNE 11.1 mph17.9 kmh 30.08 in1018.6 mb 0.01 in0.3 mm 0.00 in0.0 mm 0.01 in0.3 mm